createdAt,value
2017-09-17T00:00:30.630Z,100345.42
2017-09-17T00:01:36.776Z,100347.43
2017-09-17T00:02:44.447Z,100344.56
2017-09-17T00:03:50.551Z,100343.95
2017-09-17T00:04:56.855Z,100339.81
2017-09-17T00:06:03.139Z,100343.84
2017-09-17T00:07:09.590Z,100340.01
2017-09-17T00:08:15.875Z,100341.45
2017-09-17T00:09:22.196Z,100335.13
2017-09-17T00:10:28.387Z,100339.92
2017-09-17T00:11:35.868Z,100334.31
2017-09-17T00:12:42.369Z,100336.98
2017-09-17T00:13:48.959Z,100330.06
2017-09-17T00:14:55.380Z,100332.54
2017-09-17T00:16:01.635Z,100331.13
2017-09-17T00:17:08.764Z,100324.50
2017-09-17T00:18:15.029Z,100326.83
2017-09-17T00:19:21.186Z,100329.97
2017-09-17T00:20:27.520Z,100322.75
2017-09-17T00:21:34.478Z,100326.02
2017-09-17T00:22:40.943Z,100331.23
2017-09-17T00:23:47.315Z,100323.55
2017-09-17T00:24:53.704Z,100324.41
2017-09-17T00:26:00.080Z,100323.86
2017-09-17T00:27:06.576Z,100321.50
2017-09-17T00:28:12.993Z,100324.02
2017-09-17T00:29:19.154Z,100327.23
2017-09-17T00:30:26.298Z,100326.88
2017-09-17T00:31:33.253Z,100322.93
2017-09-17T00:32:40.161Z,100322.50
2017-09-17T00:33:46.491Z,100325.16
2017-09-17T00:34:52.856Z,100324.80
2017-09-17T00:35:59.523Z,100322.88
2017-09-17T00:37:06.464Z,100327.00
2017-09-17T00:38:12.968Z,100317.43
2017-09-17T00:39:19.206Z,100321.66
2017-09-17T00:40:25.521Z,100320.44
2017-09-17T00:41:31.391Z,100323.52
2017-09-17T00:42:38.460Z,100316.52
2017-09-17T00:43:45.760Z,100324.67
2017-09-17T00:44:52.405Z,100320.22
2017-09-17T00:45:58.786Z,100313.17
2017-09-17T00:47:05.351Z,100316.44
2017-09-17T00:48:11.732Z,100321.42
2017-09-17T00:49:17.915Z,100312.50
2017-09-17T00:50:24.091Z,100314.70
2017-09-17T00:51:29.943Z,100327.14
2017-09-17T00:52:35.942Z,100323.48
2017-09-17T00:53:41.420Z,100329.80
2017-09-17T00:54:46.779Z,100331.74
2017-09-17T00:55:52.912Z,100330.01
2017-09-17T00:56:59.948Z,100329.07
2017-09-17T00:58:06.163Z,100330.48
2017-09-17T00:59:12.840Z,100327.20
2017-09-17T01:00:18.699Z,100324.83
2017-09-17T01:01:24.881Z,100328.73
2017-09-17T01:02:31.087Z,100325.48
2017-09-17T01:03:37.497Z,100324.80
2017-09-17T01:04:43.554Z,100323.48
2017-09-17T01:05:50.045Z,100326.90
2017-09-17T01:06:56.356Z,100328.68
2017-09-17T01:08:02.254Z,100329.92
2017-09-17T01:09:08.634Z,100327.08
2017-09-17T01:10:14.926Z,100323.58
2017-09-17T01:11:21.509Z,100329.04
2017-09-17T01:12:28.122Z,100326.97
2017-09-17T01:13:35.164Z,100326.66
2017-09-17T01:14:41.340Z,100331.77
2017-09-17T01:15:48.063Z,100330.77
2017-09-17T01:16:54.293Z,100332.67
2017-09-17T01:18:00.523Z,100327.66
2017-09-17T01:19:07.220Z,100333.27
2017-09-17T01:20:13.603Z,100328.27
2017-09-17T01:21:19.981Z,100333.80
2017-09-17T01:22:26.097Z,100334.53
2017-09-17T01:23:32.072Z,100332.34
2017-09-17T01:24:37.926Z,100332.89
2017-09-17T01:25:45.016Z,100337.22
2017-09-17T01:26:51.403Z,100337.22
2017-09-17T01:27:58.132Z,100338.56
2017-09-17T01:29:04.745Z,100339.98
2017-09-17T01:30:10.953Z,100341.44
2017-09-17T01:31:17.470Z,100337.19
2017-09-17T01:32:24.054Z,100345.13
2017-09-17T01:33:30.275Z,100334.77
2017-09-17T01:34:36.478Z,100343.84
2017-09-17T01:35:43.022Z,100340.45
2017-09-17T01:36:49.352Z,100344.05
2017-09-17T01:37:55.649Z,100342.81
2017-09-17T01:39:01.843Z,100342.94
2017-09-17T01:40:07.659Z,100339.88
2017-09-17T01:41:13.973Z,100343.14
2017-09-17T01:42:20.258Z,100341.14
2017-09-17T01:43:26.595Z,100351.55
2017-09-17T01:44:33.191Z,100343.30
2017-09-17T01:45:39.556Z,100342.25
2017-09-17T01:46:46.327Z,100344.68
2017-09-17T01:47:52.705Z,100345.66
2017-09-17T01:48:59.282Z,100345.01
2017-09-17T01:50:05.795Z,100342.74
2017-09-17T01:51:12.191Z,100343.52
2017-09-17T01:52:18.725Z,100347.17
2017-09-17T01:53:24.847Z,100349.97
2017-09-17T01:54:31.567Z,100347.53
2017-09-17T01:55:37.874Z,100341.27
2017-09-17T01:56:44.286Z,100340.42
2017-09-17T01:57:50.741Z,100337.02
2017-09-17T01:58:56.804Z,100342.70
2017-09-17T02:00:03.103Z,100333.59
2017-09-17T02:01:09.425Z,100331.28
2017-09-17T02:02:16.948Z,100333.46
2017-09-17T02:03:23.211Z,100333.62
2017-09-17T02:04:29.667Z,100334.28
2017-09-17T02:05:36.190Z,100335.44
2017-09-17T02:06:42.714Z,100330.88
2017-09-17T02:07:48.896Z,100329.04
2017-09-17T02:08:55.348Z,100327.39
2017-09-17T02:10:01.656Z,100331.30
2017-09-17T02:11:08.262Z,100331.50
2017-09-17T02:12:14.369Z,100334.88
2017-09-17T02:13:20.597Z,100330.06
2017-09-17T02:14:26.816Z,100329.77
2017-09-17T02:15:34.444Z,100337.91
2017-09-17T02:16:41.782Z,100329.74
2017-09-17T02:17:48.041Z,100336.95
2017-09-17T02:18:55.309Z,100340.46
2017-09-17T02:20:02.618Z,100334.36
2017-09-17T02:21:09.129Z,100335.78
2017-09-17T02:22:16.396Z,100346.45
2017-09-17T02:23:23.667Z,100342.83
2017-09-17T02:24:31.220Z,100343.48
2017-09-17T02:25:37.711Z,100342.02
2017-09-17T02:26:44.202Z,100342.22
2017-09-17T02:27:50.828Z,100342.92
2017-09-17T02:28:58.068Z,100333.33
2017-09-17T02:30:03.946Z,100336.97
2017-09-17T02:31:11.291Z,100331.85
2017-09-17T02:32:17.704Z,100337.94
2017-09-17T02:33:24.340Z,100335.40
2017-09-17T02:34:31.271Z,100336.27
2017-09-17T02:35:38.054Z,100337.08
2017-09-17T02:36:44.400Z,100337.95
2017-09-17T02:37:50.648Z,100338.44
2017-09-17T02:38:57.851Z,100338.48
2017-09-17T02:40:03.731Z,100345.05
2017-09-17T02:41:10.299Z,100340.34
2017-09-17T02:42:16.370Z,100343.05
2017-09-17T02:43:23.502Z,100340.89
2017-09-17T02:44:30.113Z,100346.13
2017-09-17T02:45:36.516Z,100345.26
2017-09-17T02:46:42.642Z,100343.13
2017-09-17T02:47:48.817Z,100341.42
2017-09-17T02:48:55.044Z,100344.45
2017-09-17T02:50:02.293Z,100347.69
2017-09-17T02:51:09.230Z,100351.21
2017-09-17T02:52:15.530Z,100354.05
2017-09-17T02:53:21.747Z,100355.17
2017-09-17T02:54:28.174Z,100353.22
2017-09-17T02:55:35.259Z,100355.97
2017-09-17T02:56:41.611Z,100359.03
2017-09-17T02:57:48.624Z,100355.12
2017-09-17T02:58:55.551Z,100352.34
2017-09-17T03:00:02.273Z,100355.02
2017-09-17T03:01:08.231Z,100355.56
2017-09-17T03:02:14.485Z,100353.22
2017-09-17T03:03:20.745Z,100348.62
2017-09-17T03:04:27.147Z,100353.56
2017-09-17T03:05:33.525Z,100346.78
2017-09-17T03:06:40.021Z,100345.98
2017-09-17T03:07:46.229Z,100344.79
2017-09-17T03:08:52.548Z,100345.27
2017-09-17T03:09:58.914Z,100339.16
2017-09-17T03:11:05.800Z,100344.55
2017-09-17T03:12:13.510Z,100343.83
2017-09-17T03:13:20.138Z,100343.91
2017-09-17T03:14:26.474Z,100341.91
2017-09-17T03:15:32.659Z,100340.73
2017-09-17T03:16:39.509Z,100335.97
2017-09-17T03:17:46.643Z,100343.37
2017-09-17T03:18:53.065Z,100337.78
2017-09-17T03:19:59.672Z,100338.23
2017-09-17T03:21:06.190Z,100337.80
2017-09-17T03:22:12.754Z,100331.29
2017-09-17T03:23:19.151Z,100335.41
2017-09-17T03:24:26.043Z,100330.97
2017-09-17T03:25:32.439Z,100332.99
2017-09-17T03:26:39.652Z,100332.27
2017-09-17T03:27:46.090Z,100334.53
2017-09-17T03:28:52.521Z,100338.62
2017-09-17T03:29:58.701Z,100340.36
2017-09-17T03:31:05.957Z,100337.62
2017-09-17T03:32:12.285Z,100341.25
2017-09-17T03:33:18.794Z,100341.41
2017-09-17T03:34:25.344Z,100346.08
2017-09-17T03:35:31.637Z,100341.48
2017-09-17T03:36:38.136Z,100349.23
2017-09-17T03:37:45.009Z,100349.42
2017-09-17T03:38:51.387Z,100352.63
2017-09-17T03:39:57.735Z,100354.07
2017-09-17T03:41:04.158Z,100351.98
2017-09-17T03:42:10.090Z,100350.26
2017-09-17T03:43:16.766Z,100350.84
2017-09-17T03:44:23.032Z,100350.72
2017-09-17T03:45:29.326Z,100348.52
2017-09-17T03:46:35.713Z,100350.36
2017-09-17T03:47:42.201Z,100349.07
2017-09-17T03:48:48.455Z,100350.42
2017-09-17T03:49:55.106Z,100345.93
2017-09-17T03:51:01.426Z,100351.64
2017-09-17T03:52:07.707Z,100345.20
2017-09-17T03:53:14.042Z,100347.59
2017-09-17T03:54:21.107Z,100349.61
2017-09-17T03:55:27.688Z,100344.17
2017-09-17T03:56:33.985Z,100352.48
2017-09-17T03:57:41.168Z,100349.52
2017-09-17T03:58:47.555Z,100348.22
2017-09-17T03:59:54.419Z,100345.16
2017-09-17T04:01:00.797Z,100340.59
2017-09-17T04:02:08.028Z,100345.92
2017-09-17T04:03:15.555Z,100342.37
2017-09-17T04:04:21.996Z,100342.01
2017-09-17T04:05:28.812Z,100340.49
2017-09-17T04:06:35.928Z,100350.43
2017-09-17T04:07:42.461Z,100346.08
2017-09-17T04:08:49.071Z,100350.78
2017-09-17T04:09:56.087Z,100349.83
2017-09-17T04:11:02.507Z,100347.09
2017-09-17T04:12:09.123Z,100344.59
2017-09-17T04:13:16.422Z,100346.48
2017-09-17T04:14:23.405Z,100345.69
2017-09-17T04:15:31.007Z,100353.77
2017-09-17T04:16:39.129Z,100350.34
2017-09-17T04:17:46.372Z,100353.95
2017-09-17T04:18:56.420Z,100346.77
2017-09-17T04:20:04.117Z,100356.55
2017-09-17T04:21:12.437Z,100353.51
2017-09-17T04:22:21.347Z,100354.56
2017-09-17T04:23:30.572Z,100351.33
2017-09-17T04:24:38.786Z,100355.85
2017-09-17T04:25:47.449Z,100359.84
2017-09-17T04:26:55.959Z,100356.37
2017-09-17T04:28:03.714Z,100360.02
2017-09-17T04:29:11.750Z,100355.34
2017-09-17T04:30:19.686Z,100362.86
2017-09-17T04:31:28.455Z,100356.41
2017-09-17T04:32:37.601Z,100365.27
2017-09-17T04:33:45.759Z,100362.60
2017-09-17T04:34:54.778Z,100366.69
2017-09-17T04:36:03.693Z,100368.70
2017-09-17T04:37:13.713Z,100366.70
2017-09-17T04:38:23.686Z,100366.54
2017-09-17T04:39:34.049Z,100356.34
2017-09-17T04:40:43.683Z,100365.20
2017-09-17T04:41:52.996Z,100362.44
2017-09-17T04:43:02.706Z,100356.72
2017-09-17T04:44:10.733Z,100367.58
2017-09-17T04:45:20.745Z,100362.75
2017-09-17T04:46:31.779Z,100367.03
2017-09-17T04:47:41.699Z,100367.83
2017-09-17T04:48:51.706Z,100357.92
2017-09-17T04:50:02.788Z,100360.80
2017-09-17T04:51:12.750Z,100368.81
2017-09-17T04:52:21.714Z,100372.86
2017-09-17T04:53:31.821Z,100369.48
2017-09-17T04:54:41.599Z,100372.56
2017-09-17T04:55:50.731Z,100383.59
2017-09-17T04:56:59.620Z,100388.62
2017-09-17T04:58:10.741Z,100383.57
2017-09-17T04:59:21.578Z,100382.28
2017-09-17T05:00:33.645Z,100388.95
2017-09-17T05:01:42.747Z,100387.48
2017-09-17T05:02:52.648Z,100390.18
2017-09-17T05:04:04.695Z,100398.11
2017-09-17T05:05:14.751Z,100398.48
2017-09-17T05:06:23.647Z,100401.73
2017-09-17T05:07:33.964Z,100400.61
2017-09-17T05:08:43.677Z,100405.55
2017-09-17T05:09:53.626Z,100403.50
2017-09-17T05:11:04.593Z,100397.44
2017-09-17T05:12:13.683Z,100397.56
2017-09-17T05:13:24.545Z,100397.70
2017-09-17T05:14:33.655Z,100399.11
2017-09-17T05:15:43.726Z,100403.23
2017-09-17T05:16:52.731Z,100399.05
2017-09-17T05:18:01.626Z,100397.53
2017-09-17T05:19:10.622Z,100396.87
2017-09-17T05:20:19.579Z,100394.82
2017-09-17T05:21:28.601Z,100394.74
2017-09-17T05:22:37.441Z,100398.70
2017-09-17T05:23:46.287Z,100400.51
2017-09-17T05:24:53.928Z,100394.37
2017-09-17T05:26:03.627Z,100399.94
2017-09-17T05:27:17.677Z,100401.66
2017-09-17T05:28:28.839Z,100402.53
2017-09-17T05:29:38.643Z,100401.69
2017-09-17T05:30:49.575Z,100398.13
2017-09-17T05:31:59.780Z,100397.31
2017-09-17T05:33:09.711Z,100394.80
2017-09-17T05:34:19.737Z,100398.72
2017-09-17T05:35:29.766Z,100396.45
2017-09-17T05:36:38.757Z,100398.55
2017-09-17T05:37:48.683Z,100395.16
2017-09-17T05:38:59.698Z,100394.35
2017-09-17T05:40:09.662Z,100396.09
2017-09-17T05:41:21.757Z,100400.81
2017-09-17T05:42:31.916Z,100394.03
2017-09-17T05:43:42.586Z,100394.01
2017-09-17T05:44:53.063Z,100393.08
2017-09-17T05:46:06.782Z,100396.97
2017-09-17T05:47:19.821Z,100398.65
2017-09-17T05:48:29.625Z,100397.77
2017-09-17T05:49:39.812Z,100398.46
2017-09-17T05:50:49.674Z,100398.73
2017-09-17T05:52:00.550Z,100399.86
2017-09-17T05:53:10.702Z,100403.56
2017-09-17T05:54:20.716Z,100406.45
2017-09-17T05:55:30.637Z,100401.12
2017-09-17T05:56:40.671Z,100403.61
2017-09-17T05:57:50.486Z,100401.27
2017-09-17T05:59:00.598Z,100399.70
2017-09-17T06:00:12.598Z,100397.68
2017-09-17T06:01:21.595Z,100393.55
2017-09-17T06:02:31.495Z,100397.64
2017-09-17T06:03:42.302Z,100396.70
2017-09-17T06:04:59.642Z,100386.70
2017-09-17T06:06:09.538Z,100386.81
2017-09-17T06:07:18.593Z,100382.92
2017-09-17T06:08:30.603Z,100379.87
2017-09-17T06:09:40.657Z,100383.36
2017-09-17T06:10:50.652Z,100385.27
2017-09-17T06:12:01.339Z,100388.05
2017-09-17T06:13:10.687Z,100384.42
2017-09-17T06:14:21.605Z,100392.41
2017-09-17T06:15:32.568Z,100391.45
2017-09-17T06:16:44.478Z,100400.89
2017-09-17T06:17:54.632Z,100395.44
2017-09-17T06:19:05.546Z,100389.87
2017-09-17T06:20:16.548Z,100390.96
2017-09-17T06:21:26.573Z,100393.70
2017-09-17T06:22:36.569Z,100390.23
2017-09-17T06:23:46.656Z,100386.80
2017-09-17T06:24:54.694Z,100391.22
2017-09-17T06:26:03.616Z,100393.38
2017-09-17T06:27:13.652Z,100391.05
2017-09-17T06:28:23.546Z,100392.38
2017-09-17T06:29:33.515Z,100387.25
2017-09-17T06:30:43.428Z,100384.05
2017-09-17T06:31:53.501Z,100394.73
2017-09-17T06:33:03.551Z,100400.36
2017-09-17T06:34:13.445Z,100401.88
2017-09-17T06:35:25.454Z,100396.19
2017-09-17T06:36:34.729Z,100391.47
2017-09-17T06:37:44.471Z,100404.28
2017-09-17T06:38:56.550Z,100403.02
2017-09-17T06:40:08.387Z,100404.50
2017-09-17T06:41:19.448Z,100400.05
2017-09-17T06:42:29.573Z,100402.26
2017-09-17T06:43:40.519Z,100406.66
2017-09-17T06:44:50.472Z,100405.23
2017-09-17T06:45:59.423Z,100407.03
2017-09-17T06:47:10.438Z,100405.22
2017-09-17T06:48:20.576Z,100401.33
2017-09-17T06:49:31.513Z,100405.98
2017-09-17T06:50:43.390Z,100408.36
2017-09-17T06:51:54.566Z,100409.80
2017-09-17T06:53:04.554Z,100405.98
2017-09-17T06:54:14.531Z,100408.88
2017-09-17T06:55:24.403Z,100414.84
2017-09-17T06:56:34.493Z,100414.77
2017-09-17T06:57:44.408Z,100408.33
2017-09-17T06:58:53.426Z,100409.87
2017-09-17T07:00:04.500Z,100412.61
2017-09-17T07:01:16.540Z,100407.33
2017-09-17T07:02:26.786Z,100410.93
2017-09-17T07:03:35.287Z,100414.77
2017-09-17T07:04:43.405Z,100408.05
2017-09-17T07:05:52.360Z,100412.70
2017-09-17T07:07:00.285Z,100412.45
2017-09-17T07:08:08.415Z,100413.33
2017-09-17T07:09:16.178Z,100410.95
2017-09-17T07:10:24.430Z,100413.28
2017-09-17T07:11:33.326Z,100411.30
2017-09-17T07:12:41.313Z,100413.81
2017-09-17T07:13:49.249Z,100416.52
2017-09-17T07:14:58.275Z,100412.11
2017-09-17T07:16:07.292Z,100414.69
2017-09-17T07:17:15.263Z,100414.00
2017-09-17T07:18:23.239Z,100411.87
2017-09-17T07:19:31.336Z,100415.41
2017-09-17T07:20:41.357Z,100410.30
2017-09-17T07:21:49.222Z,100415.33
2017-09-17T07:22:57.191Z,100405.51
2017-09-17T07:24:06.155Z,100413.58
2017-09-17T07:25:13.728Z,100411.69
2017-09-17T07:26:21.180Z,100406.15
2017-09-17T07:27:29.149Z,100404.53
2017-09-17T07:28:37.180Z,100408.53
2017-09-17T07:29:44.701Z,100410.58
2017-09-17T07:30:53.130Z,100407.66
2017-09-17T07:32:00.149Z,100411.03
2017-09-17T07:33:07.606Z,100415.98
2017-09-17T07:34:15.058Z,100412.00
2017-09-17T07:35:22.162Z,100413.73
2017-09-17T07:36:30.499Z,100418.50
2017-09-17T07:37:39.240Z,100420.92
2017-09-17T07:38:47.112Z,100423.64
2017-09-17T07:39:54.663Z,100431.10
2017-09-17T07:41:02.210Z,100435.96
2017-09-17T07:42:10.191Z,100427.06
2017-09-17T07:43:18.126Z,100422.78
2017-09-17T07:44:26.168Z,100425.80
2017-09-17T07:45:33.757Z,100427.55
2017-09-17T07:46:42.182Z,100419.77
2017-09-17T07:47:50.154Z,100425.55
2017-09-17T07:48:57.683Z,100431.36
2017-09-17T07:50:05.273Z,100425.33
2017-09-17T07:51:13.222Z,100438.17
2017-09-17T07:52:20.634Z,100431.26
2017-09-17T07:53:28.097Z,100436.08
2017-09-17T07:54:36.177Z,100436.06
2017-09-17T07:55:45.087Z,100433.09
2017-09-17T07:56:54.159Z,100434.34
2017-09-17T07:58:02.191Z,100433.73
2017-09-17T07:59:10.182Z,100443.27
2017-09-17T08:00:19.265Z,100440.08
2017-09-17T08:01:27.148Z,100440.02
2017-09-17T08:02:35.094Z,100433.98
2017-09-17T08:03:43.318Z,100428.53
2017-09-17T08:04:52.164Z,100432.57
2017-09-17T08:05:59.199Z,100434.81
2017-09-17T08:07:06.927Z,100435.53
2017-09-17T08:08:15.030Z,100430.06
2017-09-17T08:09:23.232Z,100434.21
2017-09-17T08:10:31.202Z,100427.02
2017-09-17T08:11:38.576Z,100429.42
2017-09-17T08:12:46.075Z,100425.72
2017-09-17T08:13:53.587Z,100425.75
2017-09-17T08:15:01.760Z,100425.91
2017-09-17T08:16:10.183Z,100426.48
2017-09-17T08:17:17.547Z,100422.96
2017-09-17T08:18:25.084Z,100420.59
2017-09-17T08:19:33.226Z,100421.72
2017-09-17T08:20:41.123Z,100420.41
2017-09-17T08:21:49.063Z,100416.67
2017-09-17T08:22:56.106Z,100418.48
2017-09-17T08:24:03.855Z,100421.35
2017-09-17T08:25:11.904Z,100416.56
2017-09-17T08:26:19.343Z,100420.53
2017-09-17T08:27:28.084Z,100416.45
2017-09-17T08:28:35.518Z,100415.39
2017-09-17T08:29:44.230Z,100417.00
2017-09-17T08:30:52.996Z,100418.79
2017-09-17T08:32:00.100Z,100416.22
2017-09-17T08:33:07.964Z,100416.25
2017-09-17T08:34:16.051Z,100415.88
2017-09-17T08:35:23.551Z,100417.51
2017-09-17T08:36:31.152Z,100417.09
2017-09-17T08:37:39.015Z,100412.39
2017-09-17T08:38:46.047Z,100406.80
2017-09-17T08:39:54.503Z,100409.03
2017-09-17T08:41:03.142Z,100403.97
2017-09-17T08:42:12.071Z,100405.45
2017-09-17T08:43:20.040Z,100407.59
2017-09-17T08:44:29.039Z,100399.20
2017-09-17T08:45:37.116Z,100406.72
2017-09-17T08:46:45.375Z,100404.07
2017-09-17T08:47:53.051Z,100401.24
2017-09-17T08:49:00.540Z,100406.49
2017-09-17T08:50:07.531Z,100389.80
2017-09-17T08:51:14.969Z,100393.60
2017-09-17T08:52:23.005Z,100399.87
2017-09-17T08:53:32.096Z,100394.19
2017-09-17T08:54:41.044Z,100386.11
2017-09-17T08:55:50.392Z,100387.16
2017-09-17T08:57:00.140Z,100392.30
2017-09-17T08:58:09.156Z,100389.49
2017-09-17T08:59:18.116Z,100393.19
2017-09-17T09:00:26.028Z,100392.33
2017-09-17T09:01:35.020Z,100394.92
2017-09-17T09:02:44.451Z,100393.89
2017-09-17T09:03:54.205Z,100392.99
2017-09-17T09:05:02.113Z,100396.11
2017-09-17T09:06:16.125Z,100388.55
2017-09-17T09:07:24.303Z,100394.89
2017-09-17T09:08:32.047Z,100387.03
2017-09-17T09:09:40.909Z,100390.04
2017-09-17T09:10:49.904Z,100388.64
2017-09-17T09:11:59.027Z,100396.83
2017-09-17T09:13:08.062Z,100391.81
2017-09-17T09:14:16.054Z,100384.80
2017-09-17T09:15:24.998Z,100388.08
2017-09-17T09:16:35.027Z,100392.00
2017-09-17T09:17:44.077Z,100387.49
2017-09-17T09:18:52.124Z,100386.42
2017-09-17T09:19:59.463Z,100385.98
2017-09-17T09:21:07.084Z,100382.59
2017-09-17T09:22:14.975Z,100386.02
2017-09-17T09:23:24.063Z,100384.42
2017-09-17T09:24:31.937Z,100381.29
2017-09-17T09:25:39.100Z,100385.52
2017-09-17T09:26:46.969Z,100379.13
2017-09-17T09:27:55.998Z,100381.38
2017-09-17T09:29:05.087Z,100379.38
2017-09-17T09:30:13.030Z,100381.38
2017-09-17T09:31:23.062Z,100376.02
2017-09-17T09:32:34.116Z,100373.59
2017-09-17T09:33:41.947Z,100380.92
2017-09-17T09:34:50.350Z,100374.65
2017-09-17T09:36:00.037Z,100371.19
2017-09-17T09:37:09.883Z,100378.48
2017-09-17T09:38:18.750Z,100372.53
2017-09-17T09:39:27.901Z,100373.29
2017-09-17T09:40:36.019Z,100376.42
2017-09-17T09:41:43.959Z,100371.38
2017-09-17T09:42:51.931Z,100377.48
2017-09-17T09:43:59.964Z,100377.27
2017-09-17T09:45:07.835Z,100375.80
2017-09-17T09:46:15.983Z,100371.81
2017-09-17T09:47:24.915Z,100363.55
2017-09-17T09:48:33.998Z,100371.46
2017-09-17T09:49:43.081Z,100370.45
2017-09-17T09:50:52.898Z,100372.01
2017-09-17T09:52:01.007Z,100365.98
2017-09-17T09:53:08.903Z,100368.58
2017-09-17T09:54:16.924Z,100365.37
2017-09-17T09:55:25.023Z,100360.05
2017-09-17T09:56:33.987Z,100358.61
2017-09-17T09:57:41.967Z,100353.78
2017-09-17T09:58:49.982Z,100355.79
2017-09-17T10:00:00.084Z,100358.87
2017-09-17T10:01:10.903Z,100356.55
2017-09-17T10:02:20.014Z,100352.07
2017-09-17T10:03:27.874Z,100357.03
2017-09-17T10:04:36.894Z,100354.94
2017-09-17T10:05:47.773Z,100356.48
2017-09-17T10:06:57.101Z,100354.19
2017-09-17T10:08:06.003Z,100348.10
2017-09-17T10:09:14.896Z,100347.12
2017-09-17T10:10:25.986Z,100348.14
2017-09-17T10:11:38.118Z,100349.85
2017-09-17T10:12:47.947Z,100349.55
2017-09-17T10:14:00.130Z,100347.34
2017-09-17T10:15:12.531Z,100352.16
2017-09-17T10:18:34.110Z,100338.26
2017-09-17T10:19:44.918Z,100345.37
2017-09-17T10:20:54.948Z,100340.44
2017-09-17T10:22:05.048Z,100339.13
2017-09-17T10:23:15.082Z,100343.78
2017-09-17T10:24:29.163Z,100343.27
2017-09-17T10:25:59.847Z,100341.23
2017-09-17T10:27:13.343Z,100343.25
2017-09-17T10:28:46.975Z,100332.29
2017-09-17T10:29:55.695Z,100331.73
2017-09-17T10:31:35.764Z,100335.81
2017-09-17T10:32:51.047Z,100334.21
2017-09-17T10:34:02.424Z,100331.97
2017-09-17T10:35:12.071Z,100337.00
2017-09-17T10:36:22.919Z,100332.82
2017-09-17T10:37:32.978Z,100331.25
2017-09-17T10:38:44.137Z,100331.41
2017-09-17T10:39:54.198Z,100333.25
2017-09-17T10:41:03.931Z,100333.13
2017-09-17T10:42:14.954Z,100329.37
2017-09-17T10:43:25.597Z,100324.52
2017-09-17T10:44:35.985Z,100324.36
2017-09-17T10:45:46.957Z,100323.45
2017-09-17T10:46:57.954Z,100317.70
2017-09-17T10:48:10.082Z,100321.52
2017-09-17T10:49:19.927Z,100316.32
2017-09-17T10:50:30.165Z,100313.71
2017-09-17T10:51:40.027Z,100315.84
2017-09-17T10:52:49.995Z,100314.70
2017-09-17T10:54:02.175Z,100306.08
2017-09-17T10:55:11.900Z,100311.77
2017-09-17T10:56:22.078Z,100312.77
2017-09-17T10:57:35.063Z,100305.55
2017-09-17T10:58:45.071Z,100299.40
2017-09-17T10:59:57.191Z,100302.56
2017-09-17T11:01:05.776Z,100302.78
2017-09-17T11:02:15.059Z,100302.33
2017-09-17T11:03:31.019Z,100301.05
2017-09-17T11:04:43.001Z,100294.39
2017-09-17T11:05:52.881Z,100286.97
2017-09-17T11:07:03.847Z,100289.39
2017-09-17T11:08:15.142Z,100285.36
2017-09-17T11:09:24.022Z,100287.00
2017-09-17T11:10:33.915Z,100276.53
2017-09-17T11:11:42.917Z,100277.54
2017-09-17T11:12:53.007Z,100272.00
2017-09-17T11:14:04.812Z,100274.83
2017-09-17T11:15:14.035Z,100270.30
2017-09-17T11:16:26.942Z,100257.45
2017-09-17T11:17:38.947Z,100267.13
2017-09-17T11:18:48.977Z,100267.11
2017-09-17T11:20:00.024Z,100259.75
2017-09-17T11:21:09.945Z,100261.00
2017-09-17T11:22:19.789Z,100258.44
2017-09-17T11:23:29.865Z,100257.95
2017-09-17T11:24:40.904Z,100261.23
2017-09-17T11:25:53.817Z,100260.35
2017-09-17T11:27:04.988Z,100260.54
2017-09-17T11:28:16.950Z,100256.75
2017-09-17T11:29:26.951Z,100264.13
2017-09-17T11:30:37.592Z,100259.18
2017-09-17T11:31:46.970Z,100253.06
2017-09-17T11:32:58.186Z,100252.57
2017-09-17T11:34:08.848Z,100252.75
2017-09-17T11:35:20.929Z,100247.86
2017-09-17T11:36:32.963Z,100250.33
2017-09-17T11:37:42.909Z,100246.12
2017-09-17T11:38:53.907Z,100248.86
2017-09-17T11:40:04.801Z,100242.51
2017-09-17T11:41:15.944Z,100242.97
2017-09-17T11:42:26.800Z,100244.22
2017-09-17T11:43:38.020Z,100236.51
2017-09-17T11:44:48.947Z,100231.53
2017-09-17T11:46:00.914Z,100234.17
2017-09-17T11:47:12.937Z,100240.53
2017-09-17T11:48:23.038Z,100229.04
2017-09-17T11:49:32.797Z,100229.22
2017-09-17T11:50:44.985Z,100228.02
2017-09-17T11:51:56.916Z,100231.08
2017-09-17T11:53:07.877Z,100228.02
2017-09-17T11:54:20.087Z,100227.95
2017-09-17T11:55:30.753Z,100230.71
2017-09-17T11:56:39.493Z,100234.30
2017-09-17T11:57:48.794Z,100225.78
2017-09-17T11:58:58.960Z,100220.52
2017-09-17T12:00:08.899Z,100224.48
2017-09-17T12:01:18.966Z,100221.71
2017-09-17T12:02:28.457Z,100219.63
2017-09-17T12:03:37.847Z,100220.03
2017-09-17T12:04:47.850Z,100221.45
2017-09-17T12:05:57.892Z,100222.06
2017-09-17T12:07:09.818Z,100217.57
2017-09-17T12:08:20.786Z,100222.28
2017-09-17T12:09:31.881Z,100217.63
2017-09-17T12:10:42.874Z,100222.99
2017-09-17T12:11:54.899Z,100218.28
2017-09-17T12:13:05.816Z,100221.73
2017-09-17T12:14:15.899Z,100215.80
2017-09-17T12:15:25.878Z,100215.61
2017-09-17T12:16:35.763Z,100217.13
2017-09-17T12:17:45.734Z,100218.12
2017-09-17T12:18:56.853Z,100214.67
2017-09-17T12:20:06.682Z,100216.48
2017-09-17T12:21:16.951Z,100216.05
2017-09-17T12:22:26.831Z,100209.33
2017-09-17T12:23:35.701Z,100207.61
2017-09-17T12:24:45.844Z,100207.00
2017-09-17T12:25:56.688Z,100203.45
2017-09-17T12:27:07.022Z,100204.04
2017-09-17T12:28:17.717Z,100199.80
2017-09-17T12:29:27.699Z,100197.33
2017-09-17T12:30:37.840Z,100211.02
2017-09-17T12:31:51.084Z,100207.35
2017-09-17T12:33:03.731Z,100206.17
2017-09-17T12:34:13.844Z,100206.05
2017-09-17T12:35:24.757Z,100208.14
2017-09-17T12:36:35.715Z,100210.51
2017-09-17T12:37:46.830Z,100214.48
2017-09-17T12:38:56.809Z,100210.98
2017-09-17T12:40:08.837Z,100210.70
2017-09-17T12:41:19.736Z,100212.73
2017-09-17T12:42:31.680Z,100211.31
2017-09-17T12:43:41.821Z,100206.63
2017-09-17T12:44:53.844Z,100204.67
2017-09-17T12:46:04.697Z,100211.55
2017-09-17T12:47:15.809Z,100203.59
2017-09-17T12:48:25.788Z,100209.05
2017-09-17T12:49:40.778Z,100213.64
2017-09-17T12:50:50.790Z,100214.76
2017-09-17T12:52:00.641Z,100206.77
2017-09-17T12:53:11.732Z,100206.26
2017-09-17T12:54:25.942Z,100206.81
2017-09-17T12:55:37.950Z,100211.54
2017-09-17T12:56:47.792Z,100206.78
2017-09-17T12:57:58.959Z,100206.36
2017-09-17T12:59:09.774Z,100210.93
2017-09-17T13:00:19.778Z,100210.67
2017-09-17T13:01:29.618Z,100213.48
2017-09-17T13:02:40.715Z,100210.64
2017-09-17T13:03:56.940Z,100212.70
2017-09-17T13:05:11.983Z,100210.97
2017-09-17T13:06:27.822Z,100213.08